createdAt,value
2022-10-30T00:02:33.394Z,69.86
2022-10-30T00:07:35.396Z,69.72
2022-10-30T00:12:37.277Z,69.83
2022-10-30T00:17:39.162Z,69.79
2022-10-30T00:22:40.856Z,69.92
2022-10-30T00:27:42.542Z,69.88
2022-10-30T00:32:44.245Z,70.15
2022-10-30T00:37:45.947Z,69.99
2022-10-30T00:42:47.627Z,69.98
2022-10-30T00:48:01.747Z,70.09
2022-10-30T00:53:06.123Z,70.10
2022-10-30T00:58:14.820Z,70.09
2022-10-30T01:03:17.174Z,69.99
2022-10-30T01:08:19.574Z,70.29
2022-10-30T01:13:23.438Z,70.02
2022-10-30T01:18:34.478Z,70.19
2022-10-30T01:24:01.007Z,70.38
2022-10-30T01:29:23.901Z,70.45
2022-10-30T01:34:44.379Z,70.81
2022-10-30T01:39:46.185Z,71.10
2022-10-30T01:44:47.853Z,70.66
2022-10-30T01:49:52.091Z,70.62
2022-10-30T01:55:29.114Z,70.49
2022-10-30T02:00:30.830Z,70.40
2022-10-30T02:05:48.436Z,70.54
2022-10-30T02:10:52.334Z,70.53
2022-10-30T02:15:54.253Z,70.31
2022-10-30T02:20:56.229Z,70.36
2022-10-30T02:25:57.892Z,70.65
2022-10-30T02:30:59.582Z,70.34
2022-10-30T02:36:01.215Z,70.32
2022-10-30T02:41:02.950Z,70.13
2022-10-30T02:46:05.685Z,70.52
2022-10-30T02:51:07.362Z,70.50
2022-10-30T02:56:14.636Z,70.26
2022-10-30T03:01:18.696Z,70.14
2022-10-30T03:06:20.455Z,70.33
2022-10-30T03:11:22.253Z,70.46
2022-10-30T03:16:26.867Z,70.43
2022-10-30T03:21:29.313Z,70.60
2022-10-30T03:26:31.024Z,70.88
2022-10-30T03:31:33.396Z,71.25
2022-10-30T03:36:35.373Z,71.27
2022-10-30T03:41:37.020Z,71.48
2022-10-30T03:46:38.703Z,71.21
2022-10-30T03:51:40.373Z,70.90
2022-10-30T03:56:42.077Z,70.88
2022-10-30T04:01:43.901Z,70.80
2022-10-30T04:06:45.778Z,70.60
2022-10-30T04:11:47.488Z,70.69
2022-10-30T04:16:49.147Z,70.58
2022-10-30T04:21:51.429Z,70.62
2022-10-30T04:26:53.088Z,70.88
2022-10-30T04:31:54.841Z,70.97
2022-10-30T04:36:56.599Z,70.60
2022-10-30T04:41:58.248Z,70.54
2022-10-30T04:47:00.028Z,70.76
2022-10-30T04:52:01.711Z,70.68
2022-10-30T04:57:03.540Z,70.39
2022-10-30T05:02:05.361Z,70.52
2022-10-30T05:07:07.353Z,70.82
2022-10-30T05:12:10.525Z,70.84
2022-10-30T05:17:12.178Z,70.67
2022-10-30T05:22:14.271Z,70.55
2022-10-30T05:27:16.067Z,70.58
2022-10-30T05:32:17.747Z,70.42
2022-10-30T05:37:19.423Z,70.24
2022-10-30T05:42:21.101Z,70.52
2022-10-30T05:47:22.861Z,70.44
2022-10-30T05:52:24.508Z,70.56
2022-10-30T05:57:29.331Z,70.59
2022-10-30T06:02:31.110Z,70.94
2022-10-30T06:07:32.938Z,70.96
2022-10-30T06:12:34.594Z,71.16
2022-10-30T06:17:36.256Z,71.00
2022-10-30T06:22:38.077Z,71.22
2022-10-30T06:27:41.773Z,71.00
2022-10-30T06:32:56.919Z,70.84
2022-10-30T06:38:02.668Z,70.68
2022-10-30T06:43:04.374Z,70.96
2022-10-30T06:48:06.371Z,71.02
2022-10-30T06:53:15.438Z,70.89
2022-10-30T06:58:17.086Z,70.82
2022-10-30T07:03:19.084Z,70.46
2022-10-30T07:08:24.789Z,70.15
2022-10-30T07:13:26.522Z,70.26
2022-10-30T07:18:37.256Z,69.94
2022-10-30T07:23:39.923Z,69.81
2022-10-30T07:28:43.720Z,69.54
2022-10-30T07:33:48.532Z,69.88
2022-10-30T07:38:57.312Z,70.16
2022-10-30T07:43:59.041Z,69.85
2022-10-30T07:49:09.868Z,69.49
2022-10-30T07:54:22.276Z,70.48
2022-10-30T07:59:24.008Z,69.86
2022-10-30T08:04:27.155Z,69.42
2022-10-30T08:09:28.886Z,69.27
2022-10-30T08:14:31.628Z,68.88
2022-10-30T08:19:33.644Z,69.12
2022-10-30T08:24:35.373Z,68.92
2022-10-30T08:29:39.183Z,69.07
2022-10-30T08:34:41.009Z,68.71
2022-10-30T08:39:44.721Z,67.71
2022-10-30T08:44:58.580Z,68.34
2022-10-30T08:55:51.447Z,67.87
2022-10-30T09:01:01.076Z,68.60
2022-10-30T09:06:04.424Z,68.04
2022-10-30T09:11:09.229Z,66.91
2022-10-30T09:16:12.300Z,66.83
2022-10-30T09:21:26.084Z,66.70
2022-10-30T09:26:29.162Z,67.52
2022-10-30T09:31:32.011Z,67.80
2022-10-30T09:36:33.820Z,67.29
2022-10-30T09:48:15.745Z,66.43
2022-10-30T09:53:39.326Z,66.52
2022-10-30T09:59:15.098Z,65.76
2022-10-30T10:04:29.116Z,65.99
2022-10-30T10:09:35.091Z,65.88
2022-10-30T10:14:45.045Z,66.52
2022-10-30T10:20:20.026Z,66.37
2022-10-30T10:25:26.010Z,66.62
2022-10-30T10:30:49.149Z,66.29
2022-10-30T10:35:58.559Z,66.53
2022-10-30T10:41:25.448Z,66.81
2022-10-30T10:46:48.449Z,67.71
2022-10-30T10:52:05.036Z,67.96
2022-10-30T10:57:10.449Z,67.60
2022-10-30T11:02:51.046Z,68.44
2022-10-30T11:07:58.508Z,67.26
2022-10-30T11:13:02.665Z,66.79
2022-10-30T11:18:10.393Z,66.64
2022-10-30T11:23:33.636Z,66.57
2022-10-30T11:28:42.936Z,66.30
2022-10-30T11:33:46.513Z,66.03
2022-10-30T11:38:49.730Z,65.44
2022-10-30T11:43:51.809Z,65.21
2022-10-30T11:48:58.192Z,63.54
2022-10-30T11:54:02.711Z,63.09
2022-10-30T11:59:07.799Z,62.65
2022-10-30T12:04:22.449Z,61.60
2022-10-30T12:09:32.817Z,61.64
2022-10-30T12:14:38.569Z,62.33
2022-10-30T12:19:49.631Z,62.70
2022-10-30T12:24:56.709Z,62.69
2022-10-30T12:30:21.129Z,62.25
2022-10-30T12:35:31.928Z,62.22
2022-10-30T12:40:54.200Z,62.10
2022-10-30T12:46:29.677Z,61.69
2022-10-30T12:51:54.455Z,60.20
2022-10-30T12:57:12.956Z,59.43
2022-10-30T13:02:51.586Z,58.35
2022-10-30T13:08:01.162Z,58.32
2022-10-30T13:13:19.227Z,56.92
2022-10-30T13:18:24.256Z,56.70
2022-10-30T13:23:40.810Z,57.24
2022-10-30T13:29:01.988Z,57.85
2022-10-30T13:34:27.388Z,58.87
2022-10-30T13:39:46.540Z,58.57
2022-10-30T13:45:06.865Z,58.66
2022-10-30T13:50:25.559Z,58.58
2022-10-30T13:55:34.706Z,59.41
2022-10-30T14:01:02.998Z,59.39
2022-10-30T14:06:42.867Z,59.66
2022-10-30T14:11:46.301Z,60.17
2022-10-30T14:17:13.856Z,60.46
2022-10-30T14:22:25.606Z,60.84
2022-10-30T14:27:38.504Z,61.55
2022-10-30T14:32:42.064Z,61.99
2022-10-30T14:37:47.804Z,62.54
2022-10-30T14:43:06.826Z,62.93
2022-10-30T14:48:33.252Z,63.09
2022-10-30T14:54:01.488Z,63.02
2022-10-30T14:59:15.518Z,63.51
2022-10-30T15:04:24.374Z,63.26
2022-10-30T15:10:03.249Z,63.77
2022-10-30T15:15:11.743Z,64.24
2022-10-30T15:20:27.740Z,64.73
2022-10-30T15:25:53.222Z,64.73
2022-10-30T15:31:07.550Z,64.61
2022-10-30T15:36:32.006Z,64.99
2022-10-30T15:41:45.044Z,65.47
2022-10-30T15:46:52.127Z,65.94
2022-10-30T15:52:04.907Z,66.29
2022-10-30T16:02:49.716Z,67.07
2022-10-30T16:08:19.242Z,67.67
2022-10-30T16:13:29.980Z,68.35
2022-10-30T16:18:36.112Z,68.18
2022-10-30T16:23:40.505Z,68.61
2022-10-30T16:28:53.583Z,69.05
2022-10-30T16:33:58.672Z,69.34
2022-10-30T16:39:04.035Z,69.50
2022-10-30T16:44:35.686Z,69.43
2022-10-30T16:49:48.640Z,69.67
2022-10-30T16:55:22.138Z,69.86
2022-10-30T17:00:28.041Z,70.27
2022-10-30T17:05:39.869Z,70.27
2022-10-30T17:10:56.732Z,70.40
2022-10-30T17:16:00.106Z,70.67
2022-10-30T17:21:07.476Z,70.71
2022-10-30T17:26:18.829Z,70.84
2022-10-30T17:31:43.189Z,71.01
2022-10-30T17:36:46.644Z,70.92
2022-10-30T17:41:56.117Z,71.34
2022-10-30T17:46:58.556Z,71.43
2022-10-30T17:52:02.521Z,71.46
2022-10-30T17:57:04.896Z,71.26
2022-10-30T18:02:23.367Z,71.62
2022-10-30T18:07:25.123Z,71.89
2022-10-30T18:12:26.758Z,71.77
2022-10-30T18:17:29.965Z,71.43
2022-10-30T18:22:31.630Z,71.47
2022-10-30T18:27:34.051Z,72.10
2022-10-30T18:32:36.045Z,71.84
2022-10-30T18:37:37.693Z,71.67
2022-10-30T18:42:40.269Z,72.13
2022-10-30T18:47:43.062Z,71.69
2022-10-30T18:52:45.345Z,71.52
2022-10-30T18:57:47.877Z,71.93
2022-10-30T19:02:49.825Z,71.91
2022-10-30T19:07:51.974Z,72.05
2022-10-30T19:13:23.682Z,71.58
2022-10-30T19:18:25.956Z,71.98
2022-10-30T19:23:29.055Z,71.80
2022-10-30T19:28:31.064Z,71.81
2022-10-30T19:33:32.845Z,72.11
2022-10-30T19:38:34.579Z,71.97
2022-10-30T19:43:36.283Z,71.92
2022-10-30T19:48:56.820Z,71.98
2022-10-30T19:53:59.640Z,72.37
2022-10-30T19:59:01.380Z,72.52
2022-10-30T20:04:03.052Z,72.27
2022-10-30T20:09:05.543Z,72.96
2022-10-30T20:14:07.237Z,72.58
2022-10-30T20:19:29.364Z,73.00
2022-10-30T20:24:31.070Z,72.70
2022-10-30T20:29:33.950Z,72.55
2022-10-30T20:34:35.619Z,72.59
2022-10-30T20:39:37.569Z,72.35
2022-10-30T20:44:39.712Z,72.57
2022-10-30T20:49:41.571Z,72.60
2022-10-30T20:54:43.242Z,72.83
2022-10-30T20:59:44.885Z,72.72
2022-10-30T21:04:46.573Z,72.18
2022-10-30T21:09:48.280Z,72.04
2022-10-30T21:14:50.039Z,72.24
2022-10-30T21:19:51.680Z,71.83
2022-10-30T21:24:53.357Z,71.84
2022-10-30T21:29:55.271Z,71.81
2022-10-30T21:34:57.313Z,71.45
2022-10-30T21:39:59.173Z,71.51
2022-10-30T21:45:00.905Z,71.53
2022-10-30T21:50:06.321Z,71.30
2022-10-30T21:55:11.013Z,71.07
2022-10-30T22:00:13.356Z,71.30
2022-10-30T22:05:15.162Z,71.52
2022-10-30T22:10:16.816Z,71.25
2022-10-30T22:15:18.471Z,71.11
2022-10-30T22:20:20.119Z,71.24
2022-10-30T22:25:21.813Z,71.28
2022-10-30T22:30:23.548Z,71.10
2022-10-30T22:35:25.153Z,71.22
2022-10-30T22:40:26.801Z,71.02
2022-10-30T22:45:28.596Z,70.76
2022-10-30T22:50:30.303Z,70.99
2022-10-30T22:55:31.952Z,70.47
2022-10-30T23:00:33.589Z,71.00
2022-10-30T23:05:35.385Z,70.89
2022-10-30T23:10:37.048Z,71.24
2022-10-30T23:15:39.029Z,71.25
2022-10-30T23:20:42.472Z,70.86
2022-10-30T23:25:44.207Z,70.73
2022-10-30T23:30:46.351Z,70.78
2022-10-30T23:35:48.010Z,70.59
2022-10-30T23:40:49.694Z,70.89
2022-10-30T23:45:51.435Z,70.99
2022-10-30T23:50:53.186Z,70.96
2022-10-30T23:55:55.332Z,70.98
